createdAt,value
2018-05-04T00:00:34.585Z,64.78
2018-05-04T00:01:35.018Z,64.69
2018-05-04T00:02:35.442Z,65.64
2018-05-04T00:03:35.868Z,65.55
2018-05-04T00:04:36.303Z,65.83
2018-05-04T00:05:36.725Z,65.73
2018-05-04T00:06:37.193Z,65.83
2018-05-04T00:07:37.585Z,65.64
2018-05-04T00:08:38.011Z,65.55
2018-05-04T00:09:38.455Z,66.11
2018-05-04T00:10:38.866Z,66.31
2018-05-04T00:11:39.293Z,66.02
2018-05-04T00:12:39.721Z,66.11
2018-05-04T00:13:40.152Z,66.21
2018-05-04T00:14:40.586Z,66.40
2018-05-04T00:15:41.006Z,66.50
2018-05-04T00:16:41.435Z,66.59
2018-05-04T00:17:41.862Z,66.75
2018-05-04T00:18:42.290Z,66.37
2018-05-04T00:19:42.720Z,66.75
2018-05-04T00:20:43.149Z,66.50
2018-05-04T00:21:43.574Z,66.50
2018-05-04T00:22:44.000Z,66.59
2018-05-04T00:23:44.425Z,66.50
2018-05-04T00:24:44.941Z,66.31
2018-05-04T00:25:45.283Z,66.46
2018-05-04T00:26:45.730Z,66.46
2018-05-04T00:27:46.137Z,66.59
2018-05-04T00:28:46.571Z,66.46
2018-05-04T00:29:46.994Z,66.40
2018-05-04T00:30:47.443Z,66.50
2018-05-04T00:31:47.856Z,65.83
2018-05-04T00:32:48.280Z,65.73
2018-05-04T00:33:48.704Z,66.02
2018-05-04T00:34:49.140Z,65.64
2018-05-04T00:35:49.561Z,66.11
2018-05-04T00:36:49.987Z,66.31
2018-05-04T00:37:50.421Z,66.50
2018-05-04T00:38:50.845Z,66.21
2018-05-04T00:39:51.269Z,66.21
2018-05-04T00:40:51.699Z,65.92
2018-05-04T00:41:52.133Z,66.59
2018-05-04T00:42:52.555Z,66.50
2018-05-04T00:43:52.991Z,66.21
2018-05-04T00:44:53.409Z,65.89
2018-05-04T00:45:53.841Z,66.50
2018-05-04T00:46:54.332Z,66.50
2018-05-04T00:47:54.710Z,66.21
2018-05-04T00:48:55.128Z,65.64
2018-05-04T00:49:55.551Z,65.92
2018-05-04T00:50:55.983Z,65.92
2018-05-04T00:51:56.407Z,66.31
2018-05-04T00:52:56.834Z,66.50
2018-05-04T00:53:57.262Z,66.97
2018-05-04T00:54:57.690Z,66.75
2018-05-04T00:55:58.117Z,67.22
2018-05-04T00:56:58.563Z,66.94
2018-05-04T00:57:58.982Z,67.22
2018-05-04T00:58:59.402Z,67.22
2018-05-04T00:59:59.842Z,67.64
2018-05-04T01:01:00.263Z,67.93
2018-05-04T01:02:00.684Z,67.70
2018-05-04T01:03:01.188Z,67.70
2018-05-04T01:04:01.544Z,67.99
2018-05-04T01:05:01.969Z,67.80
2018-05-04T01:06:02.397Z,67.89
2018-05-04T01:07:02.824Z,68.56
2018-05-04T01:08:03.249Z,68.56
2018-05-04T01:09:03.680Z,68.75
2018-05-04T01:10:04.108Z,68.75
2018-05-04T01:11:04.535Z,68.75
2018-05-04T01:12:04.964Z,68.65
2018-05-04T01:13:05.390Z,68.84
2018-05-04T01:14:05.869Z,69.23
2018-05-04T01:15:06.258Z,69.99
2018-05-04T01:16:06.673Z,69.79
2018-05-04T01:17:07.100Z,69.70
2018-05-04T01:18:07.637Z,69.79
2018-05-04T01:19:07.951Z,70.18
2018-05-04T01:20:08.384Z,70.27
2018-05-04T01:21:08.818Z,70.27
2018-05-04T01:22:09.237Z,70.27
2018-05-04T01:23:09.668Z,70.27
2018-05-04T01:24:10.208Z,70.27
2018-05-04T01:25:10.531Z,70.65
2018-05-04T01:26:10.946Z,71.13
2018-05-04T01:27:11.378Z,71.22
2018-05-04T01:28:11.810Z,71.13
2018-05-04T01:29:12.234Z,70.90
2018-05-04T01:30:12.680Z,71.51
2018-05-04T01:31:13.087Z,71.51
2018-05-04T01:32:13.516Z,71.67
2018-05-04T01:33:13.945Z,71.95
2018-05-04T01:34:14.381Z,72.33
2018-05-04T01:35:14.872Z,72.24
2018-05-04T01:36:15.222Z,72.24
2018-05-04T01:37:15.660Z,71.80
2018-05-04T01:38:16.114Z,72.05
2018-05-04T01:39:16.524Z,72.33
2018-05-04T01:40:16.936Z,72.52
2018-05-04T01:41:17.361Z,72.62
2018-05-04T01:42:17.794Z,72.90
2018-05-04T01:43:18.216Z,73.10
2018-05-04T01:44:18.651Z,73.47
2018-05-04T01:45:19.102Z,73.38
2018-05-04T01:46:19.504Z,73.38
2018-05-04T01:47:19.934Z,73.66
2018-05-04T01:48:20.348Z,73.76
2018-05-04T01:49:20.794Z,73.57
2018-05-04T01:50:21.205Z,73.76
2018-05-04T01:51:21.632Z,73.66
2018-05-04T01:52:22.060Z,74.14
2018-05-04T01:53:22.485Z,74.52
2018-05-04T01:54:22.911Z,74.24
2018-05-04T01:55:23.343Z,74.43
2018-05-04T01:56:23.770Z,74.52
2018-05-04T01:57:24.196Z,74.24
2018-05-04T01:58:24.626Z,74.14
2018-05-04T01:59:25.050Z,74.43
2018-05-04T02:00:25.476Z,74.24
2018-05-04T02:01:25.904Z,74.24
2018-05-04T02:02:26.333Z,74.24
2018-05-04T02:03:26.756Z,74.90
2018-05-04T02:04:27.190Z,74.90
2018-05-04T02:05:27.612Z,74.99
2018-05-04T02:06:28.043Z,75.19
2018-05-04T02:07:28.468Z,75.28
2018-05-04T02:08:28.894Z,75.19
2018-05-04T02:09:29.322Z,75.57
2018-05-04T02:10:29.815Z,75.09
2018-05-04T02:11:30.181Z,75.67
2018-05-04T02:12:30.598Z,75.67
2018-05-04T02:13:31.030Z,75.85
2018-05-04T02:14:31.453Z,75.85
2018-05-04T02:15:31.884Z,75.95
2018-05-04T02:16:32.306Z,76.42
2018-05-04T02:17:32.821Z,76.81
2018-05-04T02:18:33.170Z,77.19
2018-05-04T02:19:33.589Z,77.09
2018-05-04T02:20:34.038Z,76.71
2018-05-04T02:21:34.448Z,77.09
2018-05-04T02:22:34.869Z,76.90
2018-05-04T02:23:35.300Z,77.00
2018-05-04T02:24:35.726Z,77.19
2018-05-04T02:25:36.152Z,77.00
2018-05-04T02:26:36.577Z,77.09
2018-05-04T02:27:37.021Z,77.56
2018-05-04T02:28:37.431Z,77.47
2018-05-04T02:29:37.859Z,77.95
2018-05-04T02:30:38.298Z,78.04
2018-05-04T02:31:38.712Z,78.14
2018-05-04T02:32:39.140Z,78.42
2018-05-04T02:33:39.575Z,77.95
2018-05-04T02:34:39.994Z,78.61
2018-05-04T02:35:40.419Z,78.61
2018-05-04T02:36:40.847Z,78.61
2018-05-04T02:37:41.277Z,78.99
2018-05-04T02:38:41.696Z,79.09
2018-05-04T02:39:42.134Z,79.47
2018-05-04T02:40:42.559Z,79.94
2018-05-04T02:41:42.982Z,79.94
2018-05-04T02:42:43.407Z,80.13
2018-05-04T02:43:43.836Z,80.19
2018-05-04T02:44:44.266Z,80.10
2018-05-04T02:45:44.693Z,80.47
2018-05-04T02:46:45.116Z,81.14
2018-05-04T02:47:45.547Z,81.14
2018-05-04T02:48:45.970Z,81.71
2018-05-04T02:49:46.398Z,82.19
2018-05-04T02:50:46.836Z,82.38
2018-05-04T02:51:47.257Z,82.86
2018-05-04T02:52:47.675Z,83.81
2018-05-04T02:53:48.105Z,83.62
2018-05-04T02:54:48.537Z,84.09
2018-05-04T02:55:48.957Z,84.76
2018-05-04T02:56:49.380Z,84.85
2018-05-04T02:57:49.816Z,85.61
2018-05-04T02:58:50.238Z,85.71
2018-05-04T02:59:50.662Z,85.99
2018-05-04T03:00:51.089Z,86.09
2018-05-04T03:01:51.520Z,86.57
2018-05-04T03:02:51.942Z,87.04
2018-05-04T03:03:52.387Z,87.90
2018-05-04T03:04:52.801Z,87.80
2018-05-04T03:05:53.225Z,88.56
2018-05-04T03:06:53.645Z,88.37
2018-05-04T03:07:54.079Z,89.32
2018-05-04T03:08:54.501Z,89.42
2018-05-04T03:09:54.930Z,89.32
2018-05-04T03:10:55.356Z,89.70
2018-05-04T03:11:55.791Z,89.89
2018-05-04T03:12:56.205Z,90.56
2018-05-04T03:13:56.659Z,91.03
2018-05-04T03:14:57.062Z,91.13
2018-05-04T03:15:57.493Z,91.13
2018-05-04T03:16:57.920Z,90.84
2018-05-04T03:17:58.341Z,91.70
2018-05-04T03:18:58.764Z,91.70
2018-05-04T03:19:59.189Z,92.08
2018-05-04T03:20:59.615Z,91.80
2018-05-04T03:22:00.058Z,92.18
2018-05-04T03:23:00.468Z,92.08
2018-05-04T03:24:00.899Z,92.65
2018-05-04T03:25:01.332Z,92.36
2018-05-04T03:26:01.747Z,92.56
2018-05-04T03:27:02.182Z,92.36
2018-05-04T03:28:02.600Z,92.36
2018-05-04T03:29:03.026Z,92.84
2018-05-04T03:30:03.453Z,93.51
2018-05-04T03:31:03.887Z,93.70
2018-05-04T03:32:04.307Z,93.23
2018-05-04T03:33:04.734Z,93.51
2018-05-04T03:34:05.159Z,93.23
2018-05-04T03:35:05.588Z,92.94
2018-05-04T03:36:06.013Z,93.51
2018-05-04T03:37:06.433Z,93.32
2018-05-04T03:38:06.885Z,93.32
2018-05-04T03:39:07.296Z,93.04
2018-05-04T03:40:07.716Z,93.51
2018-05-04T03:41:08.145Z,93.60
2018-05-04T03:42:08.589Z,93.32
2018-05-04T03:43:08.994Z,93.60
2018-05-04T03:44:09.423Z,93.23
2018-05-04T03:45:09.861Z,93.32
2018-05-04T03:46:10.275Z,93.60
2018-05-04T03:47:10.704Z,93.32
2018-05-04T03:48:11.133Z,93.41
2018-05-04T03:49:11.573Z,93.41
2018-05-04T03:50:11.982Z,93.70
2018-05-04T03:51:12.420Z,93.75
2018-05-04T03:52:12.841Z,93.13
2018-05-04T03:53:13.252Z,93.46
2018-05-04T03:54:13.690Z,94.18
2018-05-04T03:55:14.107Z,93.98
2018-05-04T03:56:14.537Z,93.32
2018-05-04T03:57:14.959Z,94.03
2018-05-04T03:58:15.403Z,94.03
2018-05-04T03:59:15.815Z,94.03
2018-05-04T04:00:16.278Z,93.75
2018-05-04T04:01:16.664Z,93.75
2018-05-04T04:02:17.092Z,94.03
2018-05-04T04:03:17.514Z,93.70
2018-05-04T04:04:17.946Z,93.75
2018-05-04T04:05:18.373Z,93.98
2018-05-04T04:06:18.799Z,93.46
2018-05-04T04:07:19.222Z,93.94
2018-05-04T04:08:19.649Z,94.08
2018-05-04T04:09:20.089Z,93.98
2018-05-04T04:10:20.499Z,93.94
2018-05-04T04:11:20.928Z,94.03
2018-05-04T04:12:21.355Z,94.18
2018-05-04T04:13:21.779Z,94.08
2018-05-04T04:14:22.211Z,93.89
2018-05-04T04:15:22.759Z,94.03
2018-05-04T04:16:23.048Z,93.89
2018-05-04T04:17:23.481Z,94.03
2018-05-04T04:18:23.915Z,94.13
2018-05-04T04:19:24.333Z,93.75
2018-05-04T04:20:24.759Z,93.65
2018-05-04T04:21:25.187Z,93.94
2018-05-04T04:22:25.629Z,94.74
2018-05-04T04:23:26.100Z,94.18
2018-05-04T04:24:26.463Z,94.13
2018-05-04T04:25:26.890Z,94.27
2018-05-04T04:26:27.317Z,94.03
2018-05-04T04:27:27.740Z,94.18
2018-05-04T04:28:28.183Z,93.89
2018-05-04T04:29:28.595Z,94.08
2018-05-04T04:30:29.015Z,93.79
2018-05-04T04:31:29.497Z,94.18
2018-05-04T04:32:29.878Z,93.98
2018-05-04T04:33:30.330Z,93.89
2018-05-04T04:34:30.725Z,93.89
2018-05-04T04:35:31.145Z,93.98
2018-05-04T04:36:31.576Z,93.98
2018-05-04T04:37:32.004Z,94.08
2018-05-04T04:38:32.429Z,94.18
2018-05-04T04:39:32.849Z,93.98
2018-05-04T04:40:33.281Z,94.18
2018-05-04T04:41:33.702Z,94.08
2018-05-04T04:42:34.129Z,94.18
2018-05-04T04:43:34.558Z,93.98
2018-05-04T04:44:34.988Z,93.41
2018-05-04T04:45:35.427Z,93.98
2018-05-04T04:46:35.840Z,94.08
2018-05-04T04:47:36.266Z,94.08
2018-05-04T04:48:36.688Z,93.32
2018-05-04T04:49:37.114Z,94.08
2018-05-04T04:50:37.541Z,94.18
2018-05-04T04:51:38.031Z,94.27
2018-05-04T04:52:38.399Z,94.08
2018-05-04T04:53:38.822Z,94.08
2018-05-04T04:54:39.262Z,93.98
2018-05-04T04:55:39.872Z,93.98
2018-05-04T04:56:40.105Z,93.98
2018-05-04T04:57:40.524Z,93.98
2018-05-04T04:58:40.949Z,93.89
2018-05-04T04:59:41.382Z,93.79
2018-05-04T05:00:41.811Z,94.18
2018-05-04T05:01:42.240Z,93.79
2018-05-04T05:04:40.660Z,94.18
2018-05-04T05:05:41.092Z,93.37
2018-05-04T05:06:41.512Z,94.32
2018-05-04T05:07:41.939Z,94.22
2018-05-04T05:08:42.362Z,94.13
2018-05-04T05:09:42.787Z,93.55
2018-05-04T05:10:43.211Z,93.55
2018-05-04T05:11:43.640Z,93.65
2018-05-04T05:12:44.069Z,94.13
2018-05-04T05:13:44.493Z,93.55
2018-05-04T05:14:44.919Z,94.13
2018-05-04T05:15:45.351Z,93.65
2018-05-04T05:16:45.770Z,94.03
2018-05-04T05:17:46.203Z,93.46
2018-05-04T05:18:46.627Z,92.74
2018-05-04T05:19:47.076Z,93.03
2018-05-04T05:20:47.488Z,94.08
2018-05-04T05:21:47.917Z,92.27
2018-05-04T05:22:48.333Z,92.03
2018-05-04T05:23:48.857Z,92.18
2018-05-04T05:24:49.196Z,92.22
2018-05-04T05:25:49.637Z,91.51
2018-05-04T05:26:50.049Z,92.08
2018-05-04T05:27:50.467Z,92.18
2018-05-04T05:28:50.906Z,92.46
2018-05-04T05:29:51.321Z,92.65
2018-05-04T05:30:51.749Z,92.46
2018-05-04T05:31:52.184Z,92.27
2018-05-04T05:32:52.606Z,92.65
2018-05-04T05:33:53.037Z,92.74
2018-05-04T05:34:53.469Z,92.65
2018-05-04T05:35:53.886Z,92.65
2018-05-04T05:36:54.311Z,92.74
2018-05-04T05:37:54.742Z,92.55
2018-05-04T05:38:55.168Z,92.84
2018-05-04T05:39:55.599Z,92.74
2018-05-04T05:40:56.042Z,92.46
2018-05-04T05:41:56.455Z,92.46
2018-05-04T05:42:56.879Z,92.65
2018-05-04T05:43:57.305Z,92.46
2018-05-04T05:44:57.736Z,92.27
2018-05-04T05:45:58.168Z,92.18
2018-05-04T05:46:58.585Z,92.55
2018-05-04T05:47:59.018Z,92.13
2018-05-04T05:48:59.449Z,92.08
2018-05-04T05:49:59.871Z,92.08
2018-05-04T05:51:00.305Z,92.13
2018-05-04T05:52:00.798Z,92.03
2018-05-04T05:53:01.155Z,91.55
2018-05-04T05:54:01.584Z,92.22
2018-05-04T05:55:02.011Z,91.36
2018-05-04T05:56:02.438Z,91.27
2018-05-04T05:57:02.868Z,90.89
2018-05-04T05:58:03.295Z,90.98
2018-05-04T05:59:03.863Z,91.08
2018-05-04T06:00:04.146Z,90.03
2018-05-04T06:01:04.580Z,89.94
2018-05-04T06:02:05.005Z,90.41
2018-05-04T06:03:05.438Z,89.69
2018-05-04T06:04:05.921Z,89.40
2018-05-04T06:05:06.310Z,88.84
2018-05-04T06:06:06.722Z,88.55
2018-05-04T06:07:07.152Z,88.36
2018-05-04T06:08:07.576Z,88.50
2018-05-04T06:09:08.007Z,87.74
2018-05-04T06:10:08.433Z,87.16
2018-05-04T06:11:08.865Z,87.16
2018-05-04T06:12:09.296Z,86.40
2018-05-04T06:13:09.727Z,86.49
2018-05-04T06:14:10.150Z,86.49
2018-05-04T06:15:10.579Z,85.54
2018-05-04T06:16:11.009Z,85.64
2018-05-04T06:17:11.438Z,86.40
2018-05-04T06:18:11.870Z,85.35
2018-05-04T06:19:12.310Z,85.83
2018-05-04T06:20:12.724Z,85.73
2018-05-04T06:21:13.162Z,85.64
2018-05-04T06:22:13.582Z,85.45
2018-05-04T06:23:14.022Z,85.54
2018-05-04T06:24:14.455Z,86.11
2018-05-04T06:25:14.894Z,86.59
2018-05-04T06:26:15.312Z,86.78
2018-05-04T06:27:15.733Z,86.40
2018-05-04T06:28:16.170Z,85.83
2018-05-04T06:29:16.597Z,85.87
2018-05-04T06:30:17.019Z,84.34
2018-05-04T06:31:17.460Z,83.77
2018-05-04T06:32:17.884Z,83.67
2018-05-04T06:33:18.320Z,83.29
2018-05-04T06:34:18.745Z,82.95
2018-05-04T06:35:19.178Z,82.38
2018-05-04T06:36:19.608Z,80.76
2018-05-04T06:37:20.034Z,80.13
2018-05-04T06:38:20.504Z,78.99
2018-05-04T06:39:20.905Z,77.78
2018-05-04T06:40:21.333Z,74.38
2018-05-04T06:41:21.765Z,72.25
2018-05-04T06:42:22.201Z,68.74
2018-05-04T06:43:22.629Z,66.00
2018-05-04T06:44:23.066Z,64.63
2018-05-04T06:45:23.503Z,61.59
2018-05-04T06:46:23.928Z,59.73
2018-05-04T06:47:24.372Z,58.75
2018-05-04T06:48:24.826Z,59.74
2018-05-04T06:49:25.259Z,57.50
2018-05-04T06:50:25.684Z,57.82
2018-05-04T06:51:26.111Z,56.98
2018-05-04T06:52:26.584Z,54.61
2018-05-04T06:53:27.002Z,53.42
2018-05-04T06:54:27.434Z,52.10
2018-05-04T06:55:27.874Z,50.87
2018-05-04T06:56:28.325Z,50.51
2018-05-04T06:57:28.765Z,50.66
2018-05-04T06:58:29.203Z,51.59
2018-05-04T06:59:29.721Z,53.34
2018-05-04T07:00:30.087Z,54.37
2018-05-04T07:01:30.528Z,54.77
2018-05-04T07:02:30.979Z,56.39
2018-05-04T07:03:31.416Z,55.73
2018-05-04T07:04:31.862Z,56.59
2018-05-04T07:05:32.303Z,56.01
2018-05-04T07:06:32.751Z,55.46
2018-05-04T07:07:33.212Z,56.49
2018-05-04T07:08:33.639Z,55.94
2018-05-04T07:09:34.094Z,54.23
2018-05-04T07:10:34.531Z,50.42
2018-05-04T07:11:34.979Z,51.20
2018-05-04T07:12:35.423Z,52.23
2018-05-04T07:13:35.874Z,51.97
2018-05-04T07:14:36.310Z,52.81
2018-05-04T07:15:36.768Z,53.45
2018-05-04T07:16:37.218Z,53.58
2018-05-04T07:17:37.654Z,51.85
2018-05-04T07:18:38.101Z,51.85
2018-05-04T07:19:38.541Z,51.54
2018-05-04T07:22:29.393Z,48.43
2018-05-04T07:23:28.125Z,49.91
2018-05-04T07:24:28.570Z,48.09
2018-05-04T07:25:29.019Z,48.81
2018-05-04T07:26:29.466Z,45.52
2018-05-04T07:27:29.911Z,47.22
2018-05-04T07:28:30.362Z,48.09
2018-05-04T07:29:30.814Z,47.17
2018-05-04T07:30:31.258Z,45.32
2018-05-04T07:31:31.709Z,44.87
2018-05-04T07:32:32.166Z,46.53
2018-05-04T07:33:32.609Z,48.83
2018-05-04T07:34:33.057Z,49.50
2018-05-04T07:35:33.518Z,48.90
2018-05-04T07:36:33.958Z,50.05
2018-05-04T07:37:35.904Z,49.41
2018-05-04T07:38:34.876Z,47.39
2018-05-04T07:39:35.307Z,47.41
2018-05-04T07:40:35.766Z,46.67
2018-05-04T07:41:36.235Z,45.37
2018-05-04T07:42:36.666Z,43.57
2018-05-04T07:43:37.118Z,41.66
2018-05-04T07:44:37.577Z,41.59
2018-05-04T07:45:38.030Z,41.99
2018-05-04T07:46:40.420Z,39.66
2018-05-04T07:47:38.940Z,38.79
2018-05-04T07:48:39.447Z,38.72
2018-05-04T07:49:39.844Z,38.54
2018-05-04T07:50:40.290Z,38.26
2018-05-04T07:51:40.750Z,37.18
2018-05-04T07:52:41.229Z,41.02
2018-05-04T07:53:41.663Z,41.24
2018-05-04T07:54:42.107Z,40.20
2018-05-04T07:55:42.647Z,38.66
2018-05-04T07:56:43.021Z,39.53
2018-05-04T07:57:43.475Z,38.20
2018-05-04T07:58:43.930Z,37.54
2018-05-04T07:59:44.382Z,36.39
2018-05-04T08:00:44.841Z,35.91
2018-05-04T08:01:45.299Z,36.41
2018-05-04T08:02:45.753Z,36.21
2018-05-04T08:03:46.211Z,36.52
2018-05-04T08:04:46.671Z,36.06
2018-05-04T08:05:47.129Z,36.65
2018-05-04T08:06:47.584Z,35.19
2018-05-04T08:07:48.093Z,34.90
2018-05-04T08:08:48.498Z,35.11
2018-05-04T08:09:48.965Z,37.06
2018-05-04T08:10:49.414Z,37.19
2018-05-04T08:11:49.857Z,36.73
2018-05-04T08:12:50.320Z,36.39
2018-05-04T08:13:50.780Z,38.29
2018-05-04T08:14:51.241Z,37.16
2018-05-04T08:15:51.702Z,38.28
2018-05-04T08:16:52.156Z,38.59
2018-05-04T08:17:52.620Z,37.01
2018-05-04T08:18:53.077Z,35.32
2018-05-04T08:19:53.532Z,33.97
2018-05-04T08:20:53.993Z,33.98
2018-05-04T08:21:54.452Z,33.44
2018-05-04T08:22:54.910Z,32.68
2018-05-04T08:23:55.369Z,31.56
2018-05-04T08:24:55.830Z,34.89
2018-05-04T08:25:56.291Z,31.52
2018-05-04T08:26:56.755Z,32.36
2018-05-04T08:27:57.214Z,31.83
2018-05-04T08:28:57.670Z,29.73
2018-05-04T08:29:58.145Z,28.94
2018-05-04T08:30:58.602Z,29.27
2018-05-04T08:31:59.058Z,27.91
2018-05-04T08:32:59.522Z,27.89
2018-05-04T08:33:59.978Z,28.19
2018-05-04T08:35:00.444Z,27.15
2018-05-04T08:36:00.898Z,27.49
2018-05-04T08:37:01.364Z,27.24
2018-05-04T08:38:01.827Z,25.79
2018-05-04T08:39:03.955Z,24.66
2018-05-04T08:40:02.774Z,25.34
2018-05-04T08:41:03.210Z,24.17
2018-05-04T08:42:03.679Z,23.85
2018-05-04T08:43:07.079Z,25.30
2018-05-04T08:44:04.610Z,25.98
2018-05-04T08:45:05.071Z,25.43
2018-05-04T08:46:05.526Z,24.92
2018-05-04T08:47:05.984Z,24.54
2018-05-04T08:48:06.455Z,27.53
2018-05-04T08:49:06.945Z,27.78
2018-05-04T08:50:07.388Z,26.18
2018-05-04T08:51:07.929Z,24.27
2018-05-04T08:52:08.305Z,24.49
2018-05-04T08:53:08.769Z,22.47
2018-05-04T08:54:09.236Z,21.91
2018-05-04T08:55:09.698Z,23.88
2018-05-04T08:56:10.158Z,26.49
2018-05-04T08:57:10.676Z,23.58
2018-05-04T08:58:11.091Z,23.25
2018-05-04T08:59:11.557Z,20.92
2018-05-04T09:00:12.018Z,21.18
2018-05-04T09:01:12.484Z,21.92
2018-05-04T09:02:12.955Z,24.66
2018-05-04T09:03:13.415Z,23.26
2018-05-04T09:04:13.875Z,22.14
2018-05-04T09:05:14.391Z,21.09
2018-05-04T09:06:14.831Z,21.78
2018-05-04T09:07:15.276Z,23.94
2018-05-04T09:08:15.741Z,22.53
2018-05-04T09:09:16.206Z,22.96
2018-05-04T09:10:16.668Z,23.31
2018-05-04T09:11:17.231Z,22.91
2018-05-04T09:12:17.597Z,25.46
2018-05-04T09:13:18.077Z,26.45
2018-05-04T09:14:18.534Z,25.83
2018-05-04T09:15:19.000Z,26.86
2018-05-04T09:16:19.460Z,27.70
2018-05-04T09:17:19.955Z,26.86
2018-05-04T09:18:20.396Z,26.84
2018-05-04T09:19:20.863Z,27.13
2018-05-04T09:20:21.324Z,27.40
2018-05-04T09:21:21.792Z,27.91
2018-05-04T09:22:22.258Z,25.18
2018-05-04T09:23:22.730Z,22.31
2018-05-04T09:24:23.188Z,20.79
2018-05-04T09:25:23.764Z,19.51
2018-05-04T09:26:24.118Z,23.19
2018-05-04T09:27:24.587Z,22.99
2018-05-04T09:28:25.055Z,26.89
2018-05-04T09:29:25.519Z,27.93
2018-05-04T09:30:25.987Z,26.68
2018-05-04T09:31:26.450Z,23.35
2018-05-04T09:32:26.924Z,21.69
2018-05-04T09:33:27.380Z,22.91
2018-05-04T09:34:27.846Z,22.86
2018-05-04T09:35:28.313Z,21.26
2018-05-04T09:36:28.783Z,19.73
2018-05-04T09:37:29.247Z,19.27
2018-05-04T09:38:29.714Z,20.89
2018-05-04T09:39:30.177Z,18.79
2018-05-04T09:40:30.640Z,19.29
2018-05-04T09:41:31.107Z,18.42
2018-05-04T09:42:31.573Z,18.07
2018-05-04T09:43:32.111Z,18.55
2018-05-04T09:44:32.510Z,23.08
2018-05-04T09:45:32.971Z,25.04
2018-05-04T09:46:33.473Z,22.39
2018-05-04T09:47:33.909Z,22.08
2018-05-04T09:48:34.366Z,22.12
2018-05-04T09:49:34.838Z,20.80
2018-05-04T09:50:35.306Z,20.10
2018-05-04T09:51:35.768Z,20.70
2018-05-04T09:52:36.236Z,23.30
2018-05-04T09:53:36.705Z,22.36
2018-05-04T09:54:37.169Z,21.54
2018-05-04T09:55:37.667Z,22.30
2018-05-04T09:56:38.104Z,24.80
2018-05-04T09:57:38.574Z,24.88
2018-05-04T09:58:39.035Z,26.78
2018-05-04T09:59:39.515Z,27.60
2018-05-04T10:00:39.971Z,28.37
2018-05-04T10:01:40.439Z,28.14
2018-05-04T10:02:40.902Z,25.04
2018-05-04T10:03:41.376Z,21.88
2018-05-04T10:04:41.834Z,23.27
2018-05-04T10:05:42.306Z,24.97
2018-05-04T10:06:42.768Z,24.50
2018-05-04T10:07:43.239Z,24.88
2018-05-04T10:08:43.711Z,25.10
2018-05-04T10:09:44.178Z,23.96
2018-05-04T10:10:44.639Z,23.54
2018-05-04T10:11:45.102Z,24.29
2018-05-04T10:12:45.565Z,25.92
2018-05-04T10:13:46.052Z,26.32
2018-05-04T10:14:46.499Z,25.10
2018-05-04T10:15:46.979Z,24.81
2018-05-04T10:16:47.432Z,23.43
2018-05-04T10:17:47.897Z,20.95
2018-05-04T10:18:48.363Z,20.47
2018-05-04T10:19:48.828Z,19.92
2018-05-04T10:20:49.287Z,19.65
2018-05-04T10:21:49.766Z,21.68
2018-05-04T10:22:50.222Z,22.33
2018-05-04T10:23:50.693Z,24.81
2018-05-04T10:24:51.154Z,23.92
2018-05-04T10:25:51.631Z,21.70
2018-05-04T10:26:52.093Z,20.49
2018-05-04T10:27:52.564Z,20.77
2018-05-04T10:28:53.033Z,18.59
2018-05-04T10:29:53.504Z,21.01
2018-05-04T10:30:53.973Z,23.99
2018-05-04T10:31:54.431Z,22.83
2018-05-04T10:32:54.919Z,20.46
2018-05-04T10:33:55.368Z,19.51
2018-05-04T10:34:55.845Z,18.37
2018-05-04T10:35:56.346Z,17.80
2018-05-04T10:36:56.779Z,17.06
2018-05-04T10:37:57.237Z,19.38
2018-05-04T10:38:57.830Z,20.61
2018-05-04T10:39:58.184Z,22.49
2018-05-04T10:40:58.644Z,23.82
2018-05-04T10:41:59.109Z,22.28
2018-05-04T10:42:59.579Z,20.65
2018-05-04T10:44:00.050Z,21.88
2018-05-04T10:45:00.524Z,21.67
2018-05-04T10:46:00.984Z,21.13
2018-05-04T10:47:01.450Z,18.65
2018-05-04T10:48:01.915Z,18.65
2018-05-04T10:49:02.385Z,18.68
2018-05-04T10:50:02.863Z,17.60
2018-05-04T10:51:03.326Z,19.55
2018-05-04T10:52:03.797Z,20.46
2018-05-04T10:53:04.260Z,19.51
2018-05-04T10:54:04.731Z,19.47
2018-05-04T10:55:05.200Z,19.61
2018-05-04T10:56:05.668Z,21.26
2018-05-04T10:57:06.142Z,21.22
2018-05-04T10:58:06.611Z,17.36
2018-05-04T10:59:07.078Z,16.02
2018-05-04T11:00:07.547Z,15.51
2018-05-04T11:01:08.013Z,16.00
2018-05-04T11:02:08.513Z,16.29
2018-05-04T11:03:08.957Z,16.96
2018-05-04T11:04:09.431Z,17.52
2018-05-04T11:05:09.897Z,18.51
2018-05-04T11:06:10.381Z,17.83
2018-05-04T11:07:10.841Z,17.62
2018-05-04T11:08:11.312Z,17.82
2018-05-04T11:09:11.776Z,18.80
2018-05-04T11:10:12.255Z,17.64
2018-05-04T11:11:12.719Z,16.47
2018-05-04T11:12:13.189Z,17.03
2018-05-04T11:13:13.661Z,17.13
2018-05-04T11:14:14.130Z,18.08
2018-05-04T11:15:14.602Z,17.83
2018-05-04T11:16:15.068Z,20.07
2018-05-04T11:17:15.541Z,23.25
2018-05-04T11:18:16.007Z,25.38
2018-05-04T11:19:16.479Z,22.66
2018-05-04T11:20:16.945Z,21.91
2018-05-04T11:21:17.421Z,20.70
2018-05-04T11:22:17.885Z,19.68
2018-05-04T11:23:18.360Z,19.64
2018-05-04T11:24:18.822Z,21.02
2018-05-04T11:25:19.301Z,22.24
2018-05-04T11:26:19.791Z,21.40
2018-05-04T11:27:20.241Z,20.65
2018-05-04T11:28:20.696Z,19.68
2018-05-04T11:29:23.103Z,18.46
2018-05-04T11:30:21.664Z,17.89
2018-05-04T11:31:22.146Z,18.24
2018-05-04T11:32:22.589Z,18.44
2018-05-04T11:33:23.054Z,19.38
2018-05-04T11:34:23.526Z,19.02
2018-05-04T11:35:23.990Z,20.38
2018-05-04T11:36:24.451Z,23.08
2018-05-04T11:37:24.920Z,22.42
2018-05-04T11:38:25.391Z,22.23
2018-05-04T11:39:25.885Z,22.02
2018-05-04T11:40:26.315Z,23.65
2018-05-04T11:41:26.812Z,23.93
2018-05-04T11:42:27.273Z,24.75
2018-05-04T11:43:27.697Z,26.20
2018-05-04T11:44:28.156Z,26.28
2018-05-04T11:45:28.629Z,26.95
2018-05-04T11:46:29.068Z,26.68
2018-05-04T11:47:29.520Z,26.68
2018-05-04T11:48:29.969Z,26.69
2018-05-04T11:49:30.467Z,27.35
2018-05-04T11:50:30.881Z,27.42
2018-05-04T11:51:31.325Z,28.48
2018-05-04T11:52:31.776Z,28.86
2018-05-04T11:53:32.227Z,28.00
2018-05-04T11:54:32.713Z,27.81
2018-05-04T11:55:33.134Z,28.19
2018-05-04T11:56:33.625Z,28.67
2018-05-04T11:57:34.036Z,28.77
2018-05-04T11:58:34.498Z,27.91
2018-05-04T11:59:34.918Z,27.61
2018-05-04T12:00:35.382Z,28.25
2018-05-04T12:01:35.819Z,29.40
2018-05-04T12:02:36.286Z,29.67
2018-05-04T12:03:36.743Z,29.69
2018-05-04T12:04:37.171Z,29.02
2018-05-04T12:05:37.600Z,29.19
2018-05-04T12:06:38.051Z,29.58
2018-05-04T12:07:38.486Z,28.52
2018-05-04T12:08:38.927Z,28.23
2018-05-04T12:09:39.369Z,28.50
2018-05-04T12:10:39.811Z,28.61
2018-05-04T12:11:40.244Z,28.91
2018-05-04T12:12:40.690Z,29.02
2018-05-04T12:13:41.136Z,29.10
2018-05-04T12:14:41.579Z,29.48
2018-05-04T12:15:42.019Z,29.48
2018-05-04T12:16:42.507Z,29.75
2018-05-04T12:17:42.893Z,30.23
2018-05-04T12:18:43.345Z,30.04
2018-05-04T12:19:43.798Z,30.15
2018-05-04T12:20:44.219Z,30.90
2018-05-04T12:21:44.659Z,30.90
2018-05-04T12:22:45.187Z,31.00
2018-05-04T12:23:45.543Z,31.20
2018-05-04T12:24:45.978Z,30.82
2018-05-04T12:25:46.418Z,31.21
2018-05-04T12:26:46.918Z,30.15
2018-05-04T12:27:47.313Z,30.33
2018-05-04T12:28:47.778Z,31.20
2018-05-04T12:29:48.183Z,30.23
2018-05-04T12:30:48.623Z,30.25
2018-05-04T12:31:49.062Z,30.25
2018-05-04T12:32:49.500Z,29.37
2018-05-04T12:33:49.940Z,29.75
2018-05-04T12:34:50.391Z,29.75
2018-05-04T12:35:50.819Z,29.96
2018-05-04T12:36:51.256Z,30.05
2018-05-04T12:37:51.693Z,29.28
2018-05-04T12:38:52.144Z,29.37
2018-05-04T12:39:52.574Z,29.38
2018-05-04T12:40:53.021Z,29.75
2018-05-04T12:41:53.459Z,29.38
2018-05-04T12:42:53.900Z,28.81
2018-05-04T12:43:54.336Z,28.61
2018-05-04T12:44:54.762Z,28.71
2018-05-04T12:45:55.225Z,29.11
2018-05-04T12:46:55.756Z,29.30
2018-05-04T12:47:56.088Z,29.59
2018-05-04T12:48:56.541Z,29.30
2018-05-04T12:49:56.968Z,28.92
2018-05-04T12:50:57.405Z,28.82
2018-05-04T12:51:57.851Z,28.82
2018-05-04T12:52:58.281Z,29.30
2018-05-04T12:53:58.717Z,29.32
2018-05-04T12:54:59.168Z,29.13
2018-05-04T12:55:59.642Z,29.32
2018-05-04T12:57:00.092Z,28.95
2018-05-04T12:58:00.489Z,28.45
2018-05-04T12:59:00.923Z,28.93
2018-05-04T13:00:01.357Z,29.03
2018-05-04T13:01:01.805Z,29.49
2018-05-04T13:02:02.244Z,29.96